• Join FlightAware (Why Join?)
  • Login
  • US Flag 
12:08PM EDT


 

Airport Tracker/Info


-or-


 

Live Flight TrackerFlight Track Log ✈ C-GDBS ✈ 24-Apr-2013 ✈ CYCK / XCM - CYKZ

Flight Track Log - Related Links

Times and Time Zones

All times are in EDT time to prevent confusion due to time zone crossing. See the C-GDBS flight status page for this flight to view local times or setup timezone preferences in your user account.

Time Position Orientation Groundspeed Altitude Reporting Facility
EDT Latitude Longitude Course Direction KTS MPH feet Rate Location/Type
07:53PM 42.3483 -82.0750 42° Northeast 165 190 3,500  Level Cleveland Center
07:54PM 42.3739 -82.0333 50° Northeast 158 182 4,300 780 Climbing Cleveland Center
07:55PM 42.4078 -81.9919 42° Northeast 158 182 5,100 360 Climbing Cleveland Center
07:56PM 42.4417 -81.9450 46° Northeast 164 189 5,100 -60 Level Cleveland Center
07:57PM 42.4736 -81.8922 51° Northeast 164 189 5,000 -60 Descending Cleveland Center
07:58PM 42.5089 -81.8061 42° Northeast  Level FlightAware Approximate
07:58PM 42.5117 -81.8450 42° Northeast 174 200 5,000  Level Cleveland Center
07:59PM 42.5475 -81.8006 42° Northeast 174 200 5,000  Level Cleveland Center
08:00PM 42.5772 -81.7617 44° Northeast 168 193 5,000  Level Cleveland Center
08:01PM 42.6214 -81.7033 44° Northeast 173 199 5,000 -60 Level Cleveland Center
08:02PM 42.6572 -81.6589 42° Northeast 168 193 4,900  Descending Cleveland Center
08:03PM 42.6933 -81.6114 44° Northeast 173 199 5,000  Climbing Cleveland Center
08:04PM 42.7353 -81.5725 34° Northeast 166 191 4,900  Descending Cleveland Center
08:05PM 42.7833 -81.4667 58° Northeast 170 196 5,000  Climbing Toronto Center
08:06PM 42.8167 -81.4333 36° Northeast 180 207 5,000  Level Toronto Center
08:07PM 42.8667 -81.3833 36° Northeast 180 207 5,000  Level Toronto Center
08:08PM 42.9000 -81.3333 48° Northeast 180 207 5,000 -60 Level Toronto Center
08:09PM 42.9333 -81.3000 36° Northeast 180 207 4,900  Descending Toronto Center
08:10PM 42.9667 -81.2500 48° Northeast 170 196 5,000  Climbing Toronto Center
08:11PM 43.0000 -81.1833 56° Northeast 180 207 5,000 -60 Level Toronto Center
08:12PM 43.0333 -81.1333 48° Northeast 180 207 4,900  Descending Toronto Center
08:13PM 43.0667 -81.1000 36° Northeast 180 207 5,000  Climbing Toronto Center
08:14PM 43.1000 -81.0500 48° Northeast 180 207 4,900 -60 Descending Toronto Center
08:15PM 43.1500 -81.0000 36° Northeast 180 207 4,900  Level Toronto Center
08:16PM 43.1833 -80.9667 36° Northeast 180 207 4,900  Level Toronto Center
08:17PM 43.2167 -80.9167 48° Northeast 170 196 4,900  Level Toronto Center
08:18PM 43.2500 -80.8667 48° Northeast 180 207 5,000  Climbing Toronto Center
08:19PM 43.2833 -80.8500 20° North 170 196 5,000  Level Toronto Center
08:20PM 43.3500 -80.8000 29° Northeast 180 207 5,000  Level Toronto Center
08:21PM 43.3833 -80.7500 47° Northeast 180 207 5,000 -60 Level Toronto Center
08:22PM 43.4167 -80.7167 36° Northeast 180 207 4,900  Descending Toronto Center
08:23PM 43.4667 -80.6667 36° Northeast 180 207 5,000  Climbing Toronto Center
08:24PM 43.5000 -80.6167 47° Northeast 180 207 5,000 -60 Level Toronto Center
08:25PM 43.5333 -80.5833 36° Northeast 180 207 4,900 -60 Descending Toronto Center
08:26PM 43.5500 -80.5000 75° East 190 219 4,900 -120 Level Toronto Center
08:27PM 43.5833 -80.4333 55° Northeast 190 219 4,700 -360 Descending Toronto Center
08:28PM 43.6167 -80.4000 36° Northeast 200 230 4,200 -540 Descending Toronto Center
08:29PM 43.6667 -80.3167 50° Northeast 200 230 3,700 -600 Descending Toronto Center
08:30PM 43.7000 -80.2833 36° Northeast 200 230 3,100 -420 Descending Toronto Center
08:31PM 43.7333 -80.2167 55° Northeast 200 230 2,900 -120 Descending Toronto Center
08:32PM 43.7667 -80.1667 47° Northeast 190 219 2,900  Level Toronto Center
08:33PM 43.8000 -80.1167 47° Northeast 180 207 2,900  Level Toronto Center
08:34PM 43.8167 -80.0500 71° East 190 219 3,000  Climbing Toronto Center
08:35PM 43.8333 -79.9833 71° East 190 219 3,000  Level Toronto Center
08:36PM 43.8667 -79.9167 55° Northeast 180 207 3,000 -60 Level Toronto Center
08:37PM 43.8833 -79.8333 74° East 190 219 2,900  Descending Toronto Center
08:38PM 43.9167 -79.8000 36° Northeast 180 207 3,000  Climbing Toronto Center
08:39PM 43.9333 -79.7333 71° East 180 207 2,900  Descending Toronto Center
08:40PM 43.9500 -79.6833 65° Northeast 170 196 3,000  Climbing Toronto Center
08:41PM 43.9667 -79.6167 71° East 160 184 3,000 -60 Level Toronto Center
08:42PM 43.9833 -79.5333 74° East 160 184 2,900  Descending Toronto Center
08:43PM 43.9667 -79.5000 125° Southeast 170 196 3,000 -180 Climbing Toronto Center
08:44PM 43.9333 -79.4500 133° Southeast 170 196 2,600 -540 Descending Toronto Center
08:45PM 43.9000 -79.4000 133° Southeast 180 207 2,000 -480 Descending Toronto Center
08:46PM 43.8667 -79.3833 160° South 170 196 1,700 -360 Descending Toronto Center
08:47PM 43.8333 -79.3500 144° Southeast 140 161 1,300 -420 Descending Toronto Center